Time;durP1;ratioP1;P1;durP2;ratioP2;P2;SDS_P1;SDS_P2;PMS_P1;PMS_P2;Temp;Humidity;BMP_temperature;BMP_pressure;BME280_temperature;BME280_humidity;BME280_pressure;Samples;Min_cycle;Max_cycle;Signal;HPM_P1;HPM_P2
2023/04/07 05:52:40;;;;;;;7.55;5.35;;;;;;;;;;10501291;28;20375;-83
2023/04/07 05:57:41;;;;;;;;;;;;;;;;;;10499561;28;20099;-83
2023/04/07 06:02:42;;;;;;;4.13;3.08;;;;;;;;;;10439487;22;19961;-80
2023/04/07 06:07:43;;;;;;;13.55;10.77;;;;;;;;;;10335403;28;20129;-80
2023/04/07 06:12:44;;;;;;;5.65;4.57;;;;;;;;;;10336226;28;20030;-81
2023/04/07 06:17:45;;;;;;;4.03;2.95;;;;;;;;;;10335760;28;20037;-81
2023/04/07 06:22:46;;;;;;;;;;;;;;;;;;10337093;28;20027;-80
2023/04/07 06:27:47;;;;;;;7.45;5.90;;;;;;;;;;10335872;28;20406;-81
2023/04/07 06:32:48;;;;;;;;;;;;;;;;;;10337773;28;20114;-80
2023/04/07 06:37:49;;;;;;;6.88;6.05;;;;;;;;;;10337153;28;19910;-81
2023/04/07 06:42:50;;;;;;;4.78;3.80;;;;;;;;;;10336114;28;20031;-81
2023/04/07 06:47:51;;;;;;;5.22;3.83;;;;;;;;;;10334273;28;20034;-80
2023/04/07 06:52:52;;;;;;;;;;;;;;;;;;10334483;28;20377;-80
2023/04/07 06:57:53;;;;;;;3.47;2.97;;;;;;;;;;10334312;28;19916;-81
2023/04/07 07:02:55;;;;;;;5.57;4.50;;;;;;;;;;10313043;28;20038;-80
2023/04/07 07:07:56;;;;;;;3.78;3.05;;;;;;;;;;10306824;28;20544;-81
2023/04/07 07:12:57;;;;;;;;;;;;;;;;;;10308612;28;20030;-81
2023/04/07 07:17:58;;;;;;;6.07;5.10;;;;;;;;;;10306622;28;20001;-80
2023/04/07 07:22:59;;;;;;;;;;;;;;;;;;10306958;28;20151;-80
2023/04/07 07:28:00;;;;;;;5.53;4.45;;;;;;;;;;10306622;28;19928;-81
2023/04/07 07:33:01;;;;;;;3.85;3.45;;;;;;;;;;10306884;28;20031;-81
2023/04/07 07:38:02;;;;;;;;;;;;;;;;;;10307317;28;20098;-81
2023/04/07 07:43:03;;;;;;;2.95;2.33;;;;;;;;;;10306343;28;19912;-80
2023/04/07 07:48:04;;;;;;;3.20;2.03;;;;;;;;;;10305981;28;20034;-79
2023/04/07 07:53:05;;;;;;;6.97;6.28;;;;;;;;;;10306243;28;20046;-79
2023/04/07 07:58:06;;;;;;;;;;;;;;;;;;10307587;28;20023;-80
2023/04/07 08:03:08;;;;;;;3.35;3.05;;;;;;;;;;10304051;28;19940;-81
2023/04/07 08:08:08;;;;;;;3.03;2.55;;;;;;;;;;10305411;28;20027;-80
2023/04/07 08:13:09;;;;;;;;;;;;;;;;;;10303366;28;20030;-80
2023/04/07 08:18:11;;;;;;;3.92;3.42;;;;;;;;;;10304742;28;19910;-80
2023/04/07 08:23:12;;;;;;;3.47;3.08;;;;;;;;;;10303180;28;20451;-80
2023/04/07 08:28:13;;;;;;;2.25;2.05;;;;;;;;;;10303153;28;20168;-80
2023/04/07 08:33:14;;;;;;;4.00;3.60;;;;;;;;;;10302485;28;20102;-80
2023/04/07 08:38:15;;;;;;;2.05;1.55;;;;;;;;;;10302662;28;20023;-80
2023/04/07 08:43:19;;;;;;;2.88;2.47;;;;;;;;;;10303074;28;20023;-81
2023/04/07 08:48:22;;;;;;;4.90;4.05;;;;;;;;;;10303000;28;20062;-80
2023/04/07 08:53:27;;;;;;;4.57;4.13;;;;;;;;;;10304770;28;20027;-79
2023/04/07 08:58:28;;;;;;;2.90;2.50;;;;;;;;;;10306506;28;20031;-79
2023/04/07 09:03:31;;;;;;;3.00;2.50;;;;;;;;;;10306634;28;20122;-79
2023/04/07 09:08:32;;;;;;;2.80;2.45;;;;;;;;;;10304631;28;20054;-79
2023/04/07 09:13:33;;;;;;;4.05;3.50;;;;;;;;;;10303317;28;20058;-79
2023/04/07 09:18:34;;;;;;;6.25;5.65;;;;;;;;;;10301733;28;20022;-80
2023/04/07 09:23:36;;;;;;;3.10;2.42;;;;;;;;;;10301196;28;20547;-81
2023/04/07 09:28:45;;;;;;;3.53;3.00;;;;;;;;;;10302547;28;20085;-80
2023/04/07 09:33:47;;;;;;;4.97;4.47;;;;;;;;;;10302169;28;20493;-81
2023/04/07 09:38:48;;;;;;;3.40;3.10;;;;;;;;;;10300830;28;20038;-80
2023/04/07 09:43:49;;;;;;;;;;;;;;;;;;10302503;28;20023;-80
2023/04/07 09:49:00;;;;;;;5.45;4.93;;;;;;;;;;10302580;28;19932;-80
2023/04/07 09:54:02;;;;;;;4.20;3.30;;;;;;;;;;10299164;28;20035;-79
2023/04/07 09:59:03;;;;;;;3.70;2.95;;;;;;;;;;10299982;28;20485;-80
2023/04/07 10:04:04;;;;;;;5.70;5.10;;;;;;;;;;10300273;28;20121;-80
2023/04/07 10:09:06;;;;;;;3.67;3.33;;;;;;;;;;10300952;28;20113;-79
2023/04/07 10:14:09;;;;;;;2.65;2.28;;;;;;;;;;10300130;28;20129;-79
2023/04/07 10:19:10;;;;;;;3.33;2.72;;;;;;;;;;10301246;28;20440;-80
2023/04/07 10:24:30;;;;;;;2.17;1.70;;;;;;;;;;10299661;28;20023;-80
2023/04/07 10:29:35;;;;;;;4.07;3.50;;;;;;;;;;10299719;28;20058;-80
2023/04/07 10:34:54;;;;;;;4.60;4.07;;;;;;;;;;10299809;28;20400;-80
2023/04/07 10:40:14;;;;;;;2.20;1.92;;;;;;;;;;10308471;28;20034;-80
2023/04/07 10:45:15;;;;;;;2.35;2.03;;;;;;;;;;10307533;28;20031;-80
2023/04/07 10:50:16;;;;;;;;;;;;;;;;;;10307415;28;20037;-80
2023/04/07 10:55:17;;;;;;;;;;;;;;;;;;10307035;28;19910;-80
2023/04/07 11:00:19;;;;;;;3.50;3.20;;;;;;;;;;10308910;28;20000;-82
2023/04/07 11:05:21;;;;;;;2.58;1.92;;;;;;;;;;10307986;28;20031;-79
2023/04/07 11:10:22;;;;;;;1.90;1.70;;;;;;;;;;10306143;28;20396;-80
2023/04/07 11:15:24;;;;;;;2.75;2.17;;;;;;;;;;10307019;28;20027;-80
2023/04/07 11:20:38;;;;;;;1.60;1.40;;;;;;;;;;10305631;28;20501;-79
2023/04/07 11:25:41;;;;;;;1.92;1.73;;;;;;;;;;10306875;28;20027;-80
2023/04/07 11:30:47;;;;;;;1.60;1.40;;;;;;;;;;10304532;28;20035;-80
2023/04/07 11:35:54;;;;;;;1.55;1.40;;;;;;;;;;10304370;28;20122;-80
2023/04/07 11:40:55;;;;;;;2.17;1.55;;;;;;;;;;10307184;28;20097;-80
2023/04/07 11:46:23;;;;;;;1.73;1.50;;;;;;;;;;10303647;28;20370;-80
2023/04/07 11:51:24;;;;;;;4.97;4.47;;;;;;;;;;10306437;28;20050;-79
2023/04/07 11:56:26;;;;;;;3.17;2.88;;;;;;;;;;10303873;28;20026;-80
2023/04/07 12:01:39;;;;;;;1.45;1.15;;;;;;;;;;10304643;28;20122;-81
2023/04/07 12:06:41;;;;;;;1.70;1.60;;;;;;;;;;10306475;28;20027;-80
2023/04/07 12:11:49;;;;;;;2.42;1.80;;;;;;;;;;10306873;28;20031;-80
2023/04/07 12:16:50;;;;;;;1.60;1.13;;;;;;;;;;10304896;28;20393;-83
2023/04/07 12:21:51;;;;;;;1.50;1.20;;;;;;;;;;10307070;28;20019;-81
2023/04/07 12:26:52;;;;;;;1.80;1.50;;;;;;;;;;10304644;28;20061;-80
2023/04/07 12:31:53;;;;;;;1.30;1.20;;;;;;;;;;10304798;28;20027;-80
2023/04/07 12:36:54;;;;;;;2.75;2.15;;;;;;;;;;10311495;28;20078;-79
2023/04/07 12:41:57;;;;;;;2.40;1.88;;;;;;;;;;10308246;28;20034;-80
2023/04/07 12:46:58;;;;;;;0.73;0.73;;;;;;;;;;10304776;28;20054;-80
2023/04/07 12:51:59;;;;;;;1.27;1.00;;;;;;;;;;10303427;28;20035;-80
2023/04/07 12:57:00;;;;;;;1.25;1.13;;;;;;;;;;10302919;28;20037;-80
2023/04/07 13:02:01;;;;;;;1.80;0.95;;;;;;;;;;10303147;28;20030;-80
2023/04/07 13:07:02;;;;;;;2.17;1.50;;;;;;;;;;10303407;28;20405;-81
2023/04/07 13:12:03;;;;;;;0.85;0.82;;;;;;;;;;10301797;28;20465;-79
2023/04/07 13:17:04;;;;;;;1.70;1.23;;;;;;;;;;10300994;28;20117;-80
2023/04/07 13:22:05;;;;;;;1.48;0.80;;;;;;;;;;10300759;28;20628;-79
2023/04/07 13:27:07;;;;;;;0.85;0.85;;;;;;;;;;10301342;28;20065;-80
2023/04/07 13:32:09;;;;;;;1.27;1.10;;;;;;;;;;10302768;28;20027;-81
2023/04/07 13:37:10;;;;;;;1.20;1.00;;;;;;;;;;10302033;28;20374;-80
2023/04/07 13:42:18;;;;;;;1.10;1.00;;;;;;;;;;10306405;28;20342;-79
2023/04/07 13:47:19;;;;;;;1.58;1.38;;;;;;;;;;10310247;28;20037;-79
2023/04/07 13:52:20;;;;;;;0.80;0.80;;;;;;;;;;10302554;28;20038;-80
2023/04/07 13:57:21;;;;;;;2.05;1.63;;;;;;;;;;10302844;28;20050;-80
2023/04/07 14:02:23;;;;;;;1.88;1.42;;;;;;;;;;10301711;28;20042;-80
2023/04/07 14:07:24;;;;;;;2.13;1.30;;;;;;;;;;10302557;28;20023;-80
2023/04/07 14:12:26;;;;;;;1.40;1.30;;;;;;;;;;10305772;28;20073;-82
2023/04/07 14:17:27;;;;;;;1.52;1.23;;;;;;;;;;10308594;28;20508;-81
2023/04/07 14:22:28;;;;;;;1.50;1.13;;;;;;;;;;10312083;28;20035;-81
2023/04/07 14:27:29;;;;;;;1.25;1.15;;;;;;;;;;10309991;28;20023;-81
2023/04/07 14:32:32;;;;;;;2.30;2.00;;;;;;;;;;10310431;28;20037;-81
2023/04/07 14:37:34;;;;;;;2.38;1.88;;;;;;;;;;10311882;28;20027;-81
2023/04/07 14:42:36;;;;;;;1.95;1.80;;;;;;;;;;10308585;28;20033;-81
2023/04/07 14:47:37;;;;;;;1.00;0.80;;;;;;;;;;10308147;28;20508;-81
2023/04/07 14:52:38;;;;;;;2.63;2.30;;;;;;;;;;10308525;28;20061;-81
2023/04/07 14:57:39;;;;;;;2.72;2.35;;;;;;;;;;10310093;28;20050;-81
2023/04/07 15:02:40;;;;;;;1.77;1.58;;;;;;;;;;10312061;28;20042;-81
2023/04/07 15:07:41;;;;;;;2.70;2.20;;;;;;;;;;10312014;28;20477;-80
2023/04/07 15:12:42;;;;;;;1.55;1.33;;;;;;;;;;10312435;28;20057;-81
2023/04/07 15:17:43;;;;;;;1.52;1.20;;;;;;;;;;10313989;28;20019;-80
2023/04/07 15:22:44;;;;;;;1.77;1.63;;;;;;;;;;10311365;28;20106;-80
2023/04/07 15:27:45;;;;;;;1.20;1.00;;;;;;;;;;10310726;28;20073;-80
2023/04/07 15:33:07;;;;;;;1.50;1.40;;;;;;;;;;10311114;28;20039;-81
2023/04/07 15:38:08;;;;;;;1.63;1.35;;;;;;;;;;10309739;28;20130;-81
2023/04/07 15:43:10;;;;;;;1.35;1.20;;;;;;;;;;10311536;28;20027;-81
2023/04/07 15:48:11;;;;;;;1.48;1.10;;;;;;;;;;10313000;28;20050;-82
2023/04/07 15:53:12;;;;;;;1.75;1.45;;;;;;;;;;10311779;28;20110;-82
2023/04/07 15:58:13;;;;;;;1.33;1.10;;;;;;;;;;10311747;28;20537;-81
2023/04/07 16:03:14;;;;;;;1.88;1.65;;;;;;;;;;10318656;28;20034;-80
2023/04/07 16:08:16;;;;;;;1.17;0.90;;;;;;;;;;10309945;28;20066;-80
2023/04/07 16:13:17;;;;;;;0.98;0.85;;;;;;;;;;10309636;28;20023;-81
2023/04/07 16:18:18;;;;;;;1.45;1.30;;;;;;;;;;10314141;28;20069;-80
2023/04/07 16:23:19;;;;;;;1.83;1.38;;;;;;;;;;10308367;28;20122;-81
2023/04/07 16:28:20;;;;;;;1.45;1.17;;;;;;;;;;10307328;28;20073;-82
2023/04/07 16:33:22;;;;;;;1.52;1.30;;;;;;;;;;10305701;28;20023;-80
2023/04/07 16:38:23;;;;;;;1.70;1.15;;;;;;;;;;10307473;28;20430;-80
2023/04/07 16:43:24;;;;;;;1.38;1.25;;;;;;;;;;10307073;28;20022;-81
2023/04/07 16:48:25;;;;;;;2.00;1.40;;;;;;;;;;10305496;28;20066;-80
2023/04/07 16:53:26;;;;;;;2.08;1.52;;;;;;;;;;10306764;28;20465;-80
2023/04/07 16:58:28;;;;;;;1.10;0.88;;;;;;;;;;10305878;28;20023;-80
2023/04/07 17:03:29;;;;;;;1.98;1.65;;;;;;;;;;10306492;28;20035;-80
2023/04/07 17:08:30;;;;;;;1.35;1.15;;;;;;;;;;10308602;28;20035;-81
2023/04/07 17:13:31;;;;;;;1.20;1.10;;;;;;;;;;10309496;28;20050;-80
2023/04/07 17:18:32;;;;;;;2.60;1.40;;;;;;;;;;10307783;28;20085;-80
2023/04/07 17:23:33;;;;;;;2.00;1.50;;;;;;;;;;10305503;28;20086;-80
2023/04/07 17:28:34;;;;;;;1.27;1.17;;;;;;;;;;10304274;28;20026;-80
2023/04/07 17:33:35;;;;;;;1.85;1.63;;;;;;;;;;10305037;28;20030;-80
2023/04/07 17:38:36;;;;;;;2.15;1.10;;;;;;;;;;10304637;28;20109;-82
2023/04/07 17:43:38;;;;;;;1.40;1.25;;;;;;;;;;10306571;28;20466;-81
2023/04/07 17:48:39;;;;;;;1.95;1.52;;;;;;;;;;10305762;28;20027;-80
2023/04/07 17:53:40;;;;;;;1.02;0.95;;;;;;;;;;10305635;28;20058;-80
2023/04/07 17:58:41;;;;;;;1.70;1.40;;;;;;;;;;10304806;28;20062;-80
2023/04/07 18:03:42;;;;;;;1.77;1.15;;;;;;;;;;10357731;23;20042;-80
2023/04/07 18:08:49;;;;;;;1.92;1.73;;;;;;;;;;10366554;28;20492;-80
2023/04/07 18:13:50;;;;;;;2.08;1.88;;;;;;;;;;10367260;28;20014;-80
2023/04/07 18:18:51;;;;;;;2.80;1.80;;;;;;;;;;10368240;28;20034;-80
2023/04/07 18:23:54;;;;;;;3.67;2.90;;;;;;;;;;10365388;28;20034;-80
2023/04/07 18:29:00;;;;;;;4.93;2.15;;;;;;;;;;10351150;28;20042;-80
2023/04/07 18:34:03;;;;;;;2.72;1.95;;;;;;;;;;10351265;28;20034;-80
2023/04/07 18:39:04;;;;;;;1.98;1.60;;;;;;;;;;10366973;28;20058;-80
2023/04/07 18:44:06;;;;;;;1.65;1.30;;;;;;;;;;10368366;28;20022;-80
2023/04/07 18:49:07;;;;;;;2.65;2.45;;;;;;;;;;10364618;28;20408;-80
2023/04/07 18:54:08;;;;;;;2.42;2.00;;;;;;;;;;10364089;28;20023;-80
2023/04/07 18:59:15;;;;;;;2.22;1.92;;;;;;;;;;10367747;28;20062;-80
2023/04/07 19:04:16;;;;;;;3.75;3.20;;;;;;;;;;10368647;28;20053;-80
2023/04/07 19:09:17;;;;;;;2.65;2.15;;;;;;;;;;10370217;28;20030;-80
2023/04/07 19:14:18;;;;;;;3.60;3.25;;;;;;;;;;10370712;28;20036;-80
